sensor_id;sensor_type;location;lat;lon;timestamp;P1;durP1;ratioP1;P2;durP2;ratioP2
16153;SDS011;8182;55.648;13.208;2024-02-21T00:01:35;45.90;;;12.63;;
16153;SDS011;8182;55.648;13.208;2024-02-21T00:04:02;52.70;;;14.03;;
16153;SDS011;8182;55.648;13.208;2024-02-21T00:06:29;52.90;;;14.23;;
16153;SDS011;8182;55.648;13.208;2024-02-21T00:08:56;57.77;;;14.20;;
16153;SDS011;8182;55.648;13.208;2024-02-21T00:11:24;40.97;;;13.43;;
16153;SDS011;8182;55.648;13.208;2024-02-21T00:13:51;40.97;;;15.10;;
16153;SDS011;8182;55.648;13.208;2024-02-21T00:16:18;56.03;;;15.00;;
16153;SDS011;8182;55.648;13.208;2024-02-21T00:18:45;41.40;;;13.37;;
16153;SDS011;8182;55.648;13.208;2024-02-21T00:21:11;40.43;;;13.97;;
16153;SDS011;8182;55.648;13.208;2024-02-21T00:23:43;52.80;;;14.13;;
16153;SDS011;8182;55.648;13.208;2024-02-21T00:26:10;54.63;;;13.40;;
16153;SDS011;8182;55.648;13.208;2024-02-21T00:28:41;44.97;;;12.90;;
16153;SDS011;8182;55.648;13.208;2024-02-21T00:31:11;54.23;;;13.47;;
16153;SDS011;8182;55.648;13.208;2024-02-21T00:33:41;45.77;;;13.07;;
16153;SDS011;8182;55.648;13.208;2024-02-21T00:36:08;45.40;;;13.10;;
16153;SDS011;8182;55.648;13.208;2024-02-21T00:38:34;46.20;;;12.87;;
16153;SDS011;8182;55.648;13.208;2024-02-21T00:41:01;42.57;;;13.43;;
16153;SDS011;8182;55.648;13.208;2024-02-21T00:43:28;41.23;;;13.30;;
16153;SDS011;8182;55.648;13.208;2024-02-21T00:45:57;50.53;;;13.67;;
16153;SDS011;8182;55.648;13.208;2024-02-21T00:48:26;47.57;;;12.93;;
16153;SDS011;8182;55.648;13.208;2024-02-21T00:50:53;44.10;;;13.20;;
16153;SDS011;8182;55.648;13.208;2024-02-21T00:53:20;50.27;;;13.63;;
16153;SDS011;8182;55.648;13.208;2024-02-21T00:55:47;45.10;;;14.27;;
16153;SDS011;8182;55.648;13.208;2024-02-21T00:58:19;49.43;;;13.70;;
16153;SDS011;8182;55.648;13.208;2024-02-21T01:00:46;50.97;;;15.13;;
16153;SDS011;8182;55.648;13.208;2024-02-21T01:03:14;61.27;;;14.40;;
16153;SDS011;8182;55.648;13.208;2024-02-21T01:05:41;46.00;;;14.33;;
16153;SDS011;8182;55.648;13.208;2024-02-21T01:08:08;53.07;;;13.90;;
16153;SDS011;8182;55.648;13.208;2024-02-21T01:10:35;50.47;;;15.67;;
16153;SDS011;8182;55.648;13.208;2024-02-21T01:13:04;56.53;;;16.17;;
16153;SDS011;8182;55.648;13.208;2024-02-21T01:15:32;54.70;;;16.60;;
16153;SDS011;8182;55.648;13.208;2024-02-21T01:17:59;44.87;;;16.40;;
16153;SDS011;8182;55.648;13.208;2024-02-21T01:20:27;55.70;;;16.73;;
16153;SDS011;8182;55.648;13.208;2024-02-21T01:22:54;52.80;;;18.07;;
16153;SDS011;8182;55.648;13.208;2024-02-21T01:25:20;54.03;;;18.10;;
16153;SDS011;8182;55.648;13.208;2024-02-21T01:27:47;50.10;;;17.13;;
16153;SDS011;8182;55.648;13.208;2024-02-21T01:30:14;57.23;;;17.63;;
16153;SDS011;8182;55.648;13.208;2024-02-21T01:32:41;60.07;;;18.33;;
16153;SDS011;8182;55.648;13.208;2024-02-21T01:35:11;55.83;;;18.33;;
16153;SDS011;8182;55.648;13.208;2024-02-21T01:37:45;52.60;;;18.40;;
16153;SDS011;8182;55.648;13.208;2024-02-21T01:40:12;66.10;;;19.23;;
16153;SDS011;8182;55.648;13.208;2024-02-21T01:42:41;58.17;;;19.17;;
16153;SDS011;8182;55.648;13.208;2024-02-21T01:45:12;62.83;;;20.47;;
16153;SDS011;8182;55.648;13.208;2024-02-21T01:47:40;57.00;;;19.90;;
16153;SDS011;8182;55.648;13.208;2024-02-21T01:50:07;59.43;;;21.20;;
16153;SDS011;8182;55.648;13.208;2024-02-21T01:52:35;58.50;;;20.40;;
16153;SDS011;8182;55.648;13.208;2024-02-21T01:55:04;62.10;;;21.77;;
16153;SDS011;8182;55.648;13.208;2024-02-21T01:57:32;55.90;;;20.83;;
16153;SDS011;8182;55.648;13.208;2024-02-21T02:00:01;69.63;;;21.97;;
16153;SDS011;8182;55.648;13.208;2024-02-21T02:02:28;65.33;;;23.70;;
16153;SDS011;8182;55.648;13.208;2024-02-21T02:04:55;68.57;;;23.07;;
16153;SDS011;8182;55.648;13.208;2024-02-21T02:07:23;72.17;;;21.47;;
16153;SDS011;8182;55.648;13.208;2024-02-21T02:09:50;67.13;;;22.53;;
16153;SDS011;8182;55.648;13.208;2024-02-21T02:12:18;63.50;;;21.47;;
16153;SDS011;8182;55.648;13.208;2024-02-21T02:14:45;72.30;;;23.77;;
16153;SDS011;8182;55.648;13.208;2024-02-21T02:17:12;68.37;;;21.73;;
16153;SDS011;8182;55.648;13.208;2024-02-21T02:19:41;72.67;;;23.63;;
16153;SDS011;8182;55.648;13.208;2024-02-21T02:22:14;83.23;;;24.63;;
16153;SDS011;8182;55.648;13.208;2024-02-21T02:24:49;80.97;;;25.03;;
16153;SDS011;8182;55.648;13.208;2024-02-21T02:27:16;72.17;;;23.20;;
16153;SDS011;8182;55.648;13.208;2024-02-21T02:29:43;79.13;;;26.23;;
16153;SDS011;8182;55.648;13.208;2024-02-21T02:32:15;78.13;;;24.93;;
16153;SDS011;8182;55.648;13.208;2024-02-21T02:34:45;67.57;;;24.27;;
16153;SDS011;8182;55.648;13.208;2024-02-21T02:37:15;74.67;;;24.67;;
16153;SDS011;8182;55.648;13.208;2024-02-21T02:39:42;77.40;;;25.27;;
16153;SDS011;8182;55.648;13.208;2024-02-21T02:42:11;76.70;;;25.23;;
16153;SDS011;8182;55.648;13.208;2024-02-21T02:44:40;77.73;;;25.03;;
16153;SDS011;8182;55.648;13.208;2024-02-21T02:47:08;82.70;;;26.40;;
16153;SDS011;8182;55.648;13.208;2024-02-21T02:49:35;76.47;;;25.40;;
16153;SDS011;8182;55.648;13.208;2024-02-21T02:52:02;70.57;;;24.00;;
16153;SDS011;8182;55.648;13.208;2024-02-21T02:54:29;78.70;;;25.93;;
16153;SDS011;8182;55.648;13.208;2024-02-21T02:56:56;71.30;;;25.37;;
16153;SDS011;8182;55.648;13.208;2024-02-21T02:59:24;73.20;;;24.97;;
16153;SDS011;8182;55.648;13.208;2024-02-21T03:01:51;77.20;;;24.77;;
16153;SDS011;8182;55.648;13.208;2024-02-21T03:04:18;82.83;;;25.40;;
16153;SDS011;8182;55.648;13.208;2024-02-21T03:06:48;85.20;;;26.70;;
16153;SDS011;8182;55.648;13.208;2024-02-21T03:09:15;82.53;;;24.80;;
16153;SDS011;8182;55.648;13.208;2024-02-21T03:11:45;81.27;;;25.80;;
16153;SDS011;8182;55.648;13.208;2024-02-21T03:14:12;86.20;;;25.87;;
16153;SDS011;8182;55.648;13.208;2024-02-21T03:16:41;70.23;;;24.27;;
16153;SDS011;8182;55.648;13.208;2024-02-21T03:19:10;74.97;;;25.07;;
16153;SDS011;8182;55.648;13.208;2024-02-21T03:21:37;81.60;;;25.83;;
16153;SDS011;8182;55.648;13.208;2024-02-21T03:24:05;81.53;;;25.50;;
16153;SDS011;8182;55.648;13.208;2024-02-21T03:26:32;70.37;;;23.53;;
16153;SDS011;8182;55.648;13.208;2024-02-21T03:28:59;71.60;;;23.50;;
16153;SDS011;8182;55.648;13.208;2024-02-21T03:31:25;75.63;;;25.30;;
16153;SDS011;8182;55.648;13.208;2024-02-21T03:33:54;87.60;;;26.40;;
16153;SDS011;8182;55.648;13.208;2024-02-21T03:36:20;75.33;;;24.57;;
16153;SDS011;8182;55.648;13.208;2024-02-21T03:38:47;75.83;;;24.00;;
16153;SDS011;8182;55.648;13.208;2024-02-21T03:41:14;81.40;;;25.60;;
16153;SDS011;8182;55.648;13.208;2024-02-21T03:43:41;79.37;;;26.13;;
16153;SDS011;8182;55.648;13.208;2024-02-21T03:46:08;87.40;;;25.90;;
16153;SDS011;8182;55.648;13.208;2024-02-21T03:48:35;94.83;;;26.67;;
16153;SDS011;8182;55.648;13.208;2024-02-21T03:51:04;95.27;;;27.13;;
16153;SDS011;8182;55.648;13.208;2024-02-21T03:53:31;90.27;;;27.57;;
16153;SDS011;8182;55.648;13.208;2024-02-21T03:56:00;97.70;;;28.33;;
16153;SDS011;8182;55.648;13.208;2024-02-21T03:58:28;96.83;;;27.37;;
16153;SDS011;8182;55.648;13.208;2024-02-21T04:00:56;103.57;;;29.30;;
16153;SDS011;8182;55.648;13.208;2024-02-21T04:03:23;97.77;;;29.70;;
16153;SDS011;8182;55.648;13.208;2024-02-21T04:05:49;121.77;;;32.77;;
16153;SDS011;8182;55.648;13.208;2024-02-21T04:08:18;128.53;;;33.60;;
16153;SDS011;8182;55.648;13.208;2024-02-21T04:10:45;110.33;;;30.10;;
16153;SDS011;8182;55.648;13.208;2024-02-21T04:13:13;119.03;;;31.83;;
16153;SDS011;8182;55.648;13.208;2024-02-21T04:15:40;132.63;;;33.73;;
16153;SDS011;8182;55.648;13.208;2024-02-21T04:18:06;120.13;;;31.13;;
16153;SDS011;8182;55.648;13.208;2024-02-21T04:20:33;128.00;;;32.07;;
16153;SDS011;8182;55.648;13.208;2024-02-21T04:23:00;115.37;;;29.10;;
16153;SDS011;8182;55.648;13.208;2024-02-21T04:25:29;98.77;;;27.63;;
16153;SDS011;8182;55.648;13.208;2024-02-21T04:27:59;99.27;;;26.67;;
16153;SDS011;8182;55.648;13.208;2024-02-21T04:30:26;107.63;;;28.03;;
16153;SDS011;8182;55.648;13.208;2024-02-21T04:32:53;109.33;;;28.63;;
16153;SDS011;8182;55.648;13.208;2024-02-21T04:35:19;83.87;;;24.40;;
16153;SDS011;8182;55.648;13.208;2024-02-21T04:37:46;85.63;;;23.30;;
16153;SDS011;8182;55.648;13.208;2024-02-21T04:40:14;68.03;;;22.00;;
16153;SDS011;8182;55.648;13.208;2024-02-21T04:42:43;72.33;;;21.70;;
16153;SDS011;8182;55.648;13.208;2024-02-21T04:45:10;73.93;;;21.13;;
16153;SDS011;8182;55.648;13.208;2024-02-21T04:47:37;70.17;;;21.90;;
16153;SDS011;8182;55.648;13.208;2024-02-21T04:50:04;66.33;;;21.40;;
16153;SDS011;8182;55.648;13.208;2024-02-21T04:52:31;61.73;;;20.03;;
16153;SDS011;8182;55.648;13.208;2024-02-21T04:54:58;53.33;;;18.00;;
16153;SDS011;8182;55.648;13.208;2024-02-21T04:57:28;50.07;;;17.30;;
16153;SDS011;8182;55.648;13.208;2024-02-21T04:59:56;50.33;;;17.63;;
16153;SDS011;8182;55.648;13.208;2024-02-21T05:02:26;52.50;;;17.70;;
16153;SDS011;8182;55.648;13.208;2024-02-21T05:04:53;59.73;;;20.07;;
16153;SDS011;8182;55.648;13.208;2024-02-21T05:07:19;61.03;;;19.43;;
16153;SDS011;8182;55.648;13.208;2024-02-21T05:09:46;63.60;;;19.67;;
16153;SDS011;8182;55.648;13.208;2024-02-21T05:12:13;44.83;;;17.17;;
16153;SDS011;8182;55.648;13.208;2024-02-21T05:14:40;54.93;;;16.80;;
16153;SDS011;8182;55.648;13.208;2024-02-21T05:17:08;63.50;;;18.50;;
16153;SDS011;8182;55.648;13.208;2024-02-21T05:19:35;46.80;;;14.90;;
16153;SDS011;8182;55.648;13.208;2024-02-21T05:22:02;44.67;;;15.33;;
16153;SDS011;8182;55.648;13.208;2024-02-21T05:24:29;49.33;;;16.37;;
16153;SDS011;8182;55.648;13.208;2024-02-21T05:26:56;50.33;;;16.60;;
16153;SDS011;8182;55.648;13.208;2024-02-21T05:29:23;43.57;;;15.83;;
16153;SDS011;8182;55.648;13.208;2024-02-21T05:31:59;56.37;;;16.47;;
16153;SDS011;8182;55.648;13.208;2024-02-21T05:34:30;46.13;;;15.87;;
16153;SDS011;8182;55.648;13.208;2024-02-21T05:36:56;54.27;;;16.20;;
16153;SDS011;8182;55.648;13.208;2024-02-21T05:39:25;43.80;;;15.87;;
16153;SDS011;8182;55.648;13.208;2024-02-21T05:41:52;44.37;;;15.40;;
16153;SDS011;8182;55.648;13.208;2024-02-21T05:44:18;45.90;;;14.90;;
16153;SDS011;8182;55.648;13.208;2024-02-21T05:46:47;51.10;;;15.23;;
16153;SDS011;8182;55.648;13.208;2024-02-21T05:49:14;49.00;;;14.63;;
16153;SDS011;8182;55.648;13.208;2024-02-21T05:51:44;40.63;;;14.13;;
16153;SDS011;8182;55.648;13.208;2024-02-21T05:54:10;34.67;;;12.07;;
16153;SDS011;8182;55.648;13.208;2024-02-21T05:56:44;32.07;;;11.60;;
16153;SDS011;8182;55.648;13.208;2024-02-21T05:59:13;31.67;;;10.00;;
16153;SDS011;8182;55.648;13.208;2024-02-21T06:01:54;29.33;;;10.67;;
16153;SDS011;8182;55.648;13.208;2024-02-21T06:04:25;27.00;;;9.83;;
16153;SDS011;8182;55.648;13.208;2024-02-21T06:06:53;22.50;;;8.20;;
16153;SDS011;8182;55.648;13.208;2024-02-21T06:09:22;17.27;;;7.40;;
16153;SDS011;8182;55.648;13.208;2024-02-21T06:11:52;18.17;;;7.03;;
16153;SDS011;8182;55.648;13.208;2024-02-21T06:14:19;19.53;;;6.63;;
16153;SDS011;8182;55.648;13.208;2024-02-21T06:16:46;17.17;;;6.07;;
16153;SDS011;8182;55.648;13.208;2024-02-21T06:19:13;16.03;;;5.73;;
16153;SDS011;8182;55.648;13.208;2024-02-21T06:21:40;12.83;;;5.70;;
16153;SDS011;8182;55.648;13.208;2024-02-21T06:24:08;15.03;;;5.90;;
16153;SDS011;8182;55.648;13.208;2024-02-21T06:26:35;16.97;;;6.40;;
16153;SDS011;8182;55.648;13.208;2024-02-21T06:29:02;12.73;;;5.33;;
16153;SDS011;8182;55.648;13.208;2024-02-21T06:31:29;13.27;;;5.20;;
16153;SDS011;8182;55.648;13.208;2024-02-21T06:33:56;16.03;;;5.40;;
16153;SDS011;8182;55.648;13.208;2024-02-21T06:36:24;15.20;;;4.77;;
16153;SDS011;8182;55.648;13.208;2024-02-21T06:38:50;13.63;;;5.10;;
16153;SDS011;8182;55.648;13.208;2024-02-21T06:41:18;12.03;;;4.77;;
16153;SDS011;8182;55.648;13.208;2024-02-21T06:43:46;12.67;;;4.90;;
16153;SDS011;8182;55.648;13.208;2024-02-21T06:46:22;12.50;;;4.47;;
16153;SDS011;8182;55.648;13.208;2024-02-21T06:48:49;11.57;;;4.57;;
16153;SDS011;8182;55.648;13.208;2024-02-21T06:51:16;8.47;;;4.33;;
16153;SDS011;8182;55.648;13.208;2024-02-21T06:53:43;10.63;;;4.97;;
16153;SDS011;8182;55.648;13.208;2024-02-21T06:56:10;15.60;;;4.77;;
16153;SDS011;8182;55.648;13.208;2024-02-21T06:58:38;13.07;;;4.83;;
16153;SDS011;8182;55.648;13.208;2024-02-21T07:01:05;13.47;;;4.60;;
16153;SDS011;8182;55.648;13.208;2024-02-21T07:03:32;11.20;;;4.70;;
16153;SDS011;8182;55.648;13.208;2024-02-21T07:05:59;11.80;;;4.70;;
16153;SDS011;8182;55.648;13.208;2024-02-21T07:08:29;15.17;;;4.50;;
16153;SDS011;8182;55.648;13.208;2024-02-21T07:10:56;14.73;;;4.63;;
16153;SDS011;8182;55.648;13.208;2024-02-21T07:13:25;15.60;;;4.50;;
16153;SDS011;8182;55.648;13.208;2024-02-21T07:15:54;18.10;;;4.87;;
16153;SDS011;8182;55.648;13.208;2024-02-21T07:18:20;15.27;;;4.53;;
16153;SDS011;8182;55.648;13.208;2024-02-21T07:20:47;16.40;;;5.10;;
16153;SDS011;8182;55.648;13.208;2024-02-21T07:23:14;15.60;;;4.73;;
16153;SDS011;8182;55.648;13.208;2024-02-21T07:25:41;11.83;;;4.47;;
16153;SDS011;8182;55.648;13.208;2024-02-21T07:28:08;16.97;;;5.10;;
16153;SDS011;8182;55.648;13.208;2024-02-21T07:30:44;19.20;;;4.90;;
16153;SDS011;8182;55.648;13.208;2024-02-21T07:33:14;12.87;;;3.97;;
16153;SDS011;8182;55.648;13.208;2024-02-21T07:35:41;13.80;;;3.97;;
16153;SDS011;8182;55.648;13.208;2024-02-21T07:38:11;14.27;;;4.07;;
16153;SDS011;8182;55.648;13.208;2024-02-21T07:40:39;19.20;;;4.50;;
16153;SDS011;8182;55.648;13.208;2024-02-21T07:43:06;17.60;;;4.20;;
16153;SDS011;8182;55.648;13.208;2024-02-21T07:45:33;19.57;;;4.50;;
16153;SDS011;8182;55.648;13.208;2024-02-21T07:48:00;14.97;;;3.80;;
16153;SDS011;8182;55.648;13.208;2024-02-21T07:50:28;18.33;;;4.43;;
16153;SDS011;8182;55.648;13.208;2024-02-21T07:52:55;15.97;;;3.80;;
16153;SDS011;8182;55.648;13.208;2024-02-21T07:55:22;12.80;;;4.07;;
16153;SDS011;8182;55.648;13.208;2024-02-21T07:57:55;17.57;;;3.97;;
16153;SDS011;8182;55.648;13.208;2024-02-21T08:00:22;17.80;;;3.57;;
16153;SDS011;8182;55.648;13.208;2024-02-21T08:02:49;14.47;;;3.40;;
16153;SDS011;8182;55.648;13.208;2024-02-21T08:05:16;16.17;;;3.67;;
16153;SDS011;8182;55.648;13.208;2024-02-21T08:07:44;14.60;;;3.57;;
16153;SDS011;8182;55.648;13.208;2024-02-21T08:10:11;13.63;;;3.17;;
16153;SDS011;8182;55.648;13.208;2024-02-21T08:12:41;14.30;;;3.53;;
16153;SDS011;8182;55.648;13.208;2024-02-21T08:15:08;20.10;;;3.77;;
16153;SDS011;8182;55.648;13.208;2024-02-21T08:17:35;17.17;;;3.60;;
16153;SDS011;8182;55.648;13.208;2024-02-21T08:20:02;16.73;;;3.80;;
16153;SDS011;8182;55.648;13.208;2024-02-21T08:22:30;23.50;;;3.73;;
16153;SDS011;8182;55.648;13.208;2024-02-21T08:24:58;13.67;;;3.10;;
16153;SDS011;8182;55.648;13.208;2024-02-21T08:27:25;19.63;;;3.20;;
16153;SDS011;8182;55.648;13.208;2024-02-21T08:29:52;16.87;;;3.53;;
16153;SDS011;8182;55.648;13.208;2024-02-21T08:32:19;18.60;;;3.90;;
16153;SDS011;8182;55.648;13.208;2024-02-21T08:34:46;15.23;;;3.33;;
16153;SDS011;8182;55.648;13.208;2024-02-21T08:37:16;15.43;;;3.60;;
16153;SDS011;8182;55.648;13.208;2024-02-21T08:39:43;16.43;;;4.13;;
16153;SDS011;8182;55.648;13.208;2024-02-21T08:42:11;12.57;;;3.43;;
16153;SDS011;8182;55.648;13.208;2024-02-21T08:44:39;18.03;;;4.07;;
16153;SDS011;8182;55.648;13.208;2024-02-21T08:47:09;17.23;;;3.63;;
16153;SDS011;8182;55.648;13.208;2024-02-21T08:49:36;17.80;;;3.13;;
16153;SDS011;8182;55.648;13.208;2024-02-21T08:52:03;17.83;;;3.17;;
16153;SDS011;8182;55.648;13.208;2024-02-21T08:54:31;18.03;;;3.90;;
16153;SDS011;8182;55.648;13.208;2024-02-21T08:56:58;18.20;;;3.87;;
16153;SDS011;8182;55.648;13.208;2024-02-21T08:59:27;16.43;;;3.70;;
16153;SDS011;8182;55.648;13.208;2024-02-21T09:01:54;19.00;;;3.97;;
16153;SDS011;8182;55.648;13.208;2024-02-21T09:04:20;16.83;;;4.27;;
16153;SDS011;8182;55.648;13.208;2024-02-21T09:06:47;18.73;;;3.60;;
16153;SDS011;8182;55.648;13.208;2024-02-21T09:09:17;19.10;;;3.70;;
16153;SDS011;8182;55.648;13.208;2024-02-21T09:11:46;21.60;;;4.50;;
16153;SDS011;8182;55.648;13.208;2024-02-21T09:14:13;17.63;;;3.77;;
16153;SDS011;8182;55.648;13.208;2024-02-21T09:16:41;18.03;;;4.27;;
16153;SDS011;8182;55.648;13.208;2024-02-21T09:19:09;22.63;;;4.13;;
16153;SDS011;8182;55.648;13.208;2024-02-21T09:21:36;17.23;;;3.77;;
16153;SDS011;8182;55.648;13.208;2024-02-21T09:24:03;21.77;;;4.20;;
16153;SDS011;8182;55.648;13.208;2024-02-21T09:26:31;17.13;;;4.20;;
16153;SDS011;8182;55.648;13.208;2024-02-21T09:28:58;22.23;;;4.27;;
16153;SDS011;8182;55.648;13.208;2024-02-21T09:31:27;20.17;;;4.23;;
16153;SDS011;8182;55.648;13.208;2024-02-21T09:33:55;17.43;;;4.07;;
16153;SDS011;8182;55.648;13.208;2024-02-21T09:36:22;21.60;;;4.27;;
16153;SDS011;8182;55.648;13.208;2024-02-21T09:38:49;24.80;;;4.27;;
16153;SDS011;8182;55.648;13.208;2024-02-21T09:41:16;23.10;;;4.40;;
16153;SDS011;8182;55.648;13.208;2024-02-21T09:43:44;18.70;;;3.63;;
16153;SDS011;8182;55.648;13.208;2024-02-21T09:46:13;21.37;;;4.07;;
16153;SDS011;8182;55.648;13.208;2024-02-21T09:48:47;19.63;;;3.60;;
16153;SDS011;8182;55.648;13.208;2024-02-21T09:51:30;22.50;;;3.70;;
16153;SDS011;8182;55.648;13.208;2024-02-21T09:54:00;18.70;;;3.77;;
16153;SDS011;8182;55.648;13.208;2024-02-21T09:56:29;30.80;;;5.07;;
16153;SDS011;8182;55.648;13.208;2024-02-21T09:58:56;19.80;;;4.47;;
16153;SDS011;8182;55.648;13.208;2024-02-21T10:01:24;26.43;;;5.00;;
16153;SDS011;8182;55.648;13.208;2024-02-21T10:03:51;23.87;;;4.30;;
16153;SDS011;8182;55.648;13.208;2024-02-21T10:06:26;23.57;;;3.70;;
16153;SDS011;8182;55.648;13.208;2024-02-21T10:08:53;20.40;;;4.40;;
16153;SDS011;8182;55.648;13.208;2024-02-21T10:11:23;19.30;;;4.00;;
16153;SDS011;8182;55.648;13.208;2024-02-21T10:13:50;21.60;;;4.33;;
16153;SDS011;8182;55.648;13.208;2024-02-21T10:16:17;29.27;;;4.87;;
16153;SDS011;8182;55.648;13.208;2024-02-21T10:18:44;23.27;;;5.23;;
16153;SDS011;8182;55.648;13.208;2024-02-21T10:21:11;23.07;;;3.90;;
16153;SDS011;8182;55.648;13.208;2024-02-21T10:23:44;17.30;;;4.13;;
16153;SDS011;8182;55.648;13.208;2024-02-21T10:26:14;21.53;;;3.80;;
16153;SDS011;8182;55.648;13.208;2024-02-21T10:28:45;23.57;;;4.33;;
16153;SDS011;8182;55.648;13.208;2024-02-21T10:31:21;18.60;;;3.67;;
16153;SDS011;8182;55.648;13.208;2024-02-21T10:33:53;25.33;;;4.87;;
16153;SDS011;8182;55.648;13.208;2024-02-21T10:36:20;18.80;;;4.27;;
16153;SDS011;8182;55.648;13.208;2024-02-21T10:38:48;19.27;;;3.83;;
16153;SDS011;8182;55.648;13.208;2024-02-21T10:41:15;19.70;;;4.77;;
16153;SDS011;8182;55.648;13.208;2024-02-21T10:43:46;16.93;;;3.60;;
16153;SDS011;8182;55.648;13.208;2024-02-21T10:46:15;15.33;;;3.40;;
16153;SDS011;8182;55.648;13.208;2024-02-21T10:48:45;16.10;;;3.13;;
16153;SDS011;8182;55.648;13.208;2024-02-21T10:51:16;17.77;;;4.03;;
16153;SDS011;8182;55.648;13.208;2024-02-21T10:53:45;17.03;;;3.50;;
16153;SDS011;8182;55.648;13.208;2024-02-21T10:56:21;15.03;;;3.47;;
16153;SDS011;8182;55.648;13.208;2024-02-21T10:58:52;15.43;;;3.17;;
16153;SDS011;8182;55.648;13.208;2024-02-21T11:01:20;12.23;;;2.57;;
16153;SDS011;8182;55.648;13.208;2024-02-21T11:03:49;11.30;;;2.37;;
16153;SDS011;8182;55.648;13.208;2024-02-21T11:06:18;12.17;;;3.20;;
16153;SDS011;8182;55.648;13.208;2024-02-21T11:08:47;15.67;;;2.77;;
16153;SDS011;8182;55.648;13.208;2024-02-21T11:11:29;14.10;;;2.83;;
16153;SDS011;8182;55.648;13.208;2024-02-21T11:14:08;11.30;;;2.90;;
16153;SDS011;8182;55.648;13.208;2024-02-21T11:16:36;12.43;;;2.60;;
16153;SDS011;8182;55.648;13.208;2024-02-21T11:19:07;13.70;;;3.13;;
16153;SDS011;8182;55.648;13.208;2024-02-21T11:21:36;13.23;;;2.57;;
16153;SDS011;8182;55.648;13.208;2024-02-21T11:24:05;13.63;;;3.07;;
16153;SDS011;8182;55.648;13.208;2024-02-21T11:26:32;11.70;;;2.77;;
16153;SDS011;8182;55.648;13.208;2024-02-21T11:28:59;11.40;;;2.80;;
16153;SDS011;8182;55.648;13.208;2024-02-21T11:31:37;11.53;;;2.80;;
16153;SDS011;8182;55.648;13.208;2024-02-21T11:34:08;8.97;;;2.43;;
16153;SDS011;8182;55.648;13.208;2024-02-21T11:36:35;13.00;;;2.83;;
16153;SDS011;8182;55.648;13.208;2024-02-21T11:39:04;15.33;;;3.17;;
16153;SDS011;8182;55.648;13.208;2024-02-21T11:41:31;11.97;;;2.67;;
16153;SDS011;8182;55.648;13.208;2024-02-21T11:43:58;11.10;;;2.50;;
16153;SDS011;8182;55.648;13.208;2024-02-21T11:46:25;9.67;;;2.77;;
16153;SDS011;8182;55.648;13.208;2024-02-21T11:48:52;6.87;;;2.60;;
16153;SDS011;8182;55.648;13.208;2024-02-21T11:51:24;9.47;;;2.77;;
16153;SDS011;8182;55.648;13.208;2024-02-21T11:53:51;9.73;;;2.87;;
16153;SDS011;8182;55.648;13.208;2024-02-21T11:56:23;13.23;;;2.77;;
16153;SDS011;8182;55.648;13.208;2024-02-21T11:58:51;13.27;;;2.97;;
16153;SDS011;8182;55.648;13.208;2024-02-21T12:01:17;9.07;;;2.40;;
16153;SDS011;8182;55.648;13.208;2024-02-21T12:03:44;14.03;;;2.87;;
16153;SDS011;8182;55.648;13.208;2024-02-21T12:06:15;10.90;;;2.40;;
16153;SDS011;8182;55.648;13.208;2024-02-21T12:08:46;12.30;;;2.80;;
16153;SDS011;8182;55.648;13.208;2024-02-21T12:11:18;10.23;;;2.43;;
16153;SDS011;8182;55.648;13.208;2024-02-21T12:13:47;9.17;;;2.47;;
16153;SDS011;8182;55.648;13.208;2024-02-21T12:16:17;11.50;;;2.70;;
16153;SDS011;8182;55.648;13.208;2024-02-21T12:18:44;15.80;;;2.97;;
16153;SDS011;8182;55.648;13.208;2024-02-21T12:21:23;13.67;;;2.90;;
16153;SDS011;8182;55.648;13.208;2024-02-21T12:23:50;12.07;;;2.83;;
16153;SDS011;8182;55.648;13.208;2024-02-21T12:26:18;10.83;;;2.43;;
16153;SDS011;8182;55.648;13.208;2024-02-21T12:28:47;9.53;;;2.50;;
16153;SDS011;8182;55.648;13.208;2024-02-21T12:31:13;13.03;;;2.90;;
16153;SDS011;8182;55.648;13.208;2024-02-21T12:33:41;12.50;;;3.20;;
16153;SDS011;8182;55.648;13.208;2024-02-21T12:36:11;10.73;;;2.57;;
16153;SDS011;8182;55.648;13.208;2024-02-21T12:38:38;10.03;;;2.73;;
16153;SDS011;8182;55.648;13.208;2024-02-21T12:41:07;9.10;;;2.40;;
16153;SDS011;8182;55.648;13.208;2024-02-21T12:43:34;10.90;;;2.50;;
16153;SDS011;8182;55.648;13.208;2024-02-21T12:46:03;11.30;;;2.67;;
16153;SDS011;8182;55.648;13.208;2024-02-21T12:48:30;8.30;;;2.37;;
16153;SDS011;8182;55.648;13.208;2024-02-21T12:50:57;11.17;;;2.80;;
16153;SDS011;8182;55.648;13.208;2024-02-21T12:53:24;9.33;;;2.20;;
16153;SDS011;8182;55.648;13.208;2024-02-21T12:55:51;14.00;;;2.83;;
16153;SDS011;8182;55.648;13.208;2024-02-21T12:58:20;14.10;;;3.60;;
16153;SDS011;8182;55.648;13.208;2024-02-21T13:00:47;10.83;;;2.53;;
16153;SDS011;8182;55.648;13.208;2024-02-21T13:03:15;11.87;;;2.90;;
16153;SDS011;8182;55.648;13.208;2024-02-21T13:05:45;8.17;;;2.77;;
16153;SDS011;8182;55.648;13.208;2024-02-21T13:08:13;8.17;;;2.70;;
16153;SDS011;8182;55.648;13.208;2024-02-21T13:10:40;9.80;;;2.70;;
16153;SDS011;8182;55.648;13.208;2024-02-21T13:13:07;13.17;;;2.83;;
16153;SDS011;8182;55.648;13.208;2024-02-21T13:15:34;9.70;;;2.60;;
16153;SDS011;8182;55.648;13.208;2024-02-21T13:18:02;9.20;;;2.40;;
16153;SDS011;8182;55.648;13.208;2024-02-21T13:20:31;9.57;;;2.50;;
16153;SDS011;8182;55.648;13.208;2024-02-21T13:22:58;7.90;;;2.43;;
16153;SDS011;8182;55.648;13.208;2024-02-21T13:25:24;9.80;;;2.63;;
16153;SDS011;8182;55.648;13.208;2024-02-21T13:27:51;10.73;;;2.87;;
16153;SDS011;8182;55.648;13.208;2024-02-21T13:30:18;13.23;;;2.27;;
16153;SDS011;8182;55.648;13.208;2024-02-21T13:32:45;12.90;;;2.40;;
16153;SDS011;8182;55.648;13.208;2024-02-21T13:35:15;8.50;;;2.37;;
16153;SDS011;8182;55.648;13.208;2024-02-21T13:37:43;9.67;;;2.40;;
16153;SDS011;8182;55.648;13.208;2024-02-21T13:40:10;9.73;;;2.83;;
16153;SDS011;8182;55.648;13.208;2024-02-21T13:42:40;11.10;;;2.70;;
16153;SDS011;8182;55.648;13.208;2024-02-21T13:45:08;9.23;;;2.47;;
16153;SDS011;8182;55.648;13.208;2024-02-21T13:47:35;13.43;;;2.80;;
16153;SDS011;8182;55.648;13.208;2024-02-21T13:50:04;10.40;;;2.80;;
16153;SDS011;8182;55.648;13.208;2024-02-21T13:52:34;15.77;;;2.93;;
16153;SDS011;8182;55.648;13.208;2024-02-21T13:55:03;10.10;;;2.80;;
16153;SDS011;8182;55.648;13.208;2024-02-21T13:57:33;7.77;;;2.23;;
16153;SDS011;8182;55.648;13.208;2024-02-21T14:00:00;13.63;;;3.27;;
16153;SDS011;8182;55.648;13.208;2024-02-21T14:02:27;16.50;;;2.90;;
16153;SDS011;8182;55.648;13.208;2024-02-21T14:04:54;11.93;;;3.00;;
16153;SDS011;8182;55.648;13.208;2024-02-21T14:07:21;13.77;;;3.10;;
16153;SDS011;8182;55.648;13.208;2024-02-21T14:09:48;11.30;;;2.90;;
16153;SDS011;8182;55.648;13.208;2024-02-21T14:12:16;14.23;;;2.70;;
16153;SDS011;8182;55.648;13.208;2024-02-21T14:14:45;13.33;;;2.90;;
16153;SDS011;8182;55.648;13.208;2024-02-21T14:17:15;13.23;;;2.80;;
16153;SDS011;8182;55.648;13.208;2024-02-21T14:19:45;16.70;;;2.50;;
16153;SDS011;8182;55.648;13.208;2024-02-21T14:22:15;11.83;;;2.57;;
16153;SDS011;8182;55.648;13.208;2024-02-21T14:24:41;13.77;;;2.53;;
16153;SDS011;8182;55.648;13.208;2024-02-21T14:27:09;10.90;;;2.30;;
16153;SDS011;8182;55.648;13.208;2024-02-21T14:29:38;9.17;;;2.30;;
16153;SDS011;8182;55.648;13.208;2024-02-21T14:32:06;13.53;;;3.40;;
16153;SDS011;8182;55.648;13.208;2024-02-21T14:34:35;9.47;;;2.87;;
16153;SDS011;8182;55.648;13.208;2024-02-21T14:37:01;12.07;;;2.50;;